Fowlkes, Tennessee
Current Conditions -  °F | °C
As of 12:55 PM on Thursday 23 Oct 2014 (Local Time) from KDYR Reporting Station
Clear Clear  
Wind Chill: 61°   Ceiling: Unl
Heat Index: 61°   Visibility: 3mi
Dew Point: 37°   Wind: 0mph
Humidity: 42%   Direction: NA
Pressure: 30.2"   Gusts: NA
Location:  35.97°N, 89.39°W
Report Text: KDYR 231755Z 00000KT 3SM CLR 16/03 A3020 RMK AO1 VIS 1 1/2V5 10160 20050 57014
Loading
Personal Weather Stations






























Interactive Weather Map
Tropical Storm Tracking
New forecast layout! Learn more

10-Day Weather Forecast

Advertisements
Track Severe Weather on mobile